Guymon Municipal Airport
KGUY : now visible

Airfield :











YOU CAN JOIN US ON...

 
LOGIN :

Register | Disclaimer

   EN    FR    IT 

 









Legend :    VFR   Marginal VFR   IFR   Intensive IFR   Very Intensive IFR
Visi :
Ceiling :
>= 8 km
>= 3000ft
5 to 8 km
1000 to 3000 ft
1500m to 5 km
500 to 1000 ft
800 to 1500m
200 to 500 ft
< 800m
< 200 ft
Symbols :   Thunderstorms  Fog  Heavy snow  Heavy precipitations  Wind > 20 kt







- Airport Elevation : 3123 ft


KGUY - Guymon Municipal

CURRENT METAR :
  • 210153Z AUTO 18012KT 10SM CLR 23/00 A2968 RMK AO2 SLP015 T02330000

EXPIRED METARs :
  • 210053Z AUTO 20016KT 10SM CLR 28/M02 A2966 RMK AO2 PK WND 20029/2359 SLP011 T02781022
  • 202353Z AUTO 20021G30KT 10SM CLR 31/M02 A2966 RMK AO2 PK WND 20031/2316 SLP006 T03111017 10328 20272 56024

TAF KGUY
Valid from the 21 at 00:00 until the 22 at 00:00 UTC


202324Z 2100/2124 19016G26KT P6SM FEW250
FM210300 18013KT P6SM FEW250 WS020/22050KT
FM210800 21011KT P6SM SKC
FM212100 21015G25KT P6SM SKC
KZKC FIR / North America



MET'MAP, your aeronautical weather chart ! - Copyright ORBIFLY December 2007 - Disclaimer

ORBIFLY MET'MAP TEAM :

Programming & Development : Alexandra Zaïnal
Concept & Development : Baudouin d'Aumeries
Co-Development & Prog : Marc-Olivier Méhu
Technical & hardware support : Manuel Goepfert

Contact : metmap@orbifly.com




SOURCES & CREDITS :

   NOAA       Earth
Advisory